createdAt,value
2023-05-10T00:00:47.748Z,101260.59
2023-05-10T00:03:18.772Z,101265.20
2023-05-10T00:05:49.415Z,101264.70
2023-05-10T00:08:19.085Z,101261.52
2023-05-10T00:10:49.449Z,101267.11
2023-05-10T00:13:20.021Z,101252.53
2023-05-10T00:15:49.896Z,101254.50
2023-05-10T00:18:19.807Z,101255.79
2023-05-10T00:20:50.538Z,101248.33
2023-05-10T00:23:20.252Z,101247.66
2023-05-10T00:25:50.363Z,101244.33
2023-05-10T00:28:20.278Z,101249.92
2023-05-10T00:30:50.334Z,101248.39
2023-05-10T00:33:20.861Z,101238.97
2023-05-10T00:35:51.662Z,101238.43
2023-05-10T00:38:21.613Z,101239.58
2023-05-10T00:40:52.301Z,101239.03
2023-05-10T00:43:27.954Z,101235.88
2023-05-10T00:45:59.127Z,101238.83
2023-05-10T00:48:31.054Z,101244.41
2023-05-10T00:51:02.194Z,101240.23
2023-05-10T00:53:33.746Z,101238.75
2023-05-10T00:56:04.272Z,101244.33
2023-05-10T00:58:34.801Z,101239.34
2023-05-10T01:01:07.592Z,101232.70
2023-05-10T01:03:38.582Z,101235.47
2023-05-10T01:06:10.712Z,101231.63
2023-05-10T01:08:41.620Z,101229.13
2023-05-10T01:11:12.152Z,101235.55
2023-05-10T01:13:47.171Z,101230.56
2023-05-10T01:16:18.281Z,101229.20
2023-05-10T01:18:50.089Z,101227.84
2023-05-10T01:21:24.661Z,101225.49
2023-05-10T01:24:34.761Z,101222.30
2023-05-10T01:27:56.114Z,101221.78
2023-05-10T01:30:58.593Z,101221.40
2023-05-10T01:33:36.191Z,101217.22
2023-05-10T01:36:13.489Z,101221.82
2023-05-10T01:38:50.972Z,101223.77
2023-05-10T01:41:29.750Z,101213.52
2023-05-10T01:44:06.147Z,101212.99
2023-05-10T01:46:38.957Z,101210.61
2023-05-10T01:49:12.796Z,101209.08
2023-05-10T01:51:46.637Z,101208.56
2023-05-10T01:54:20.716Z,101208.00
2023-05-10T01:56:57.582Z,101212.59
2023-05-10T01:59:31.868Z,101207.77
2023-05-10T02:02:05.296Z,101209.73
2023-05-10T02:04:38.643Z,101207.38
2023-05-10T02:07:10.281Z,101210.14
2023-05-10T02:09:41.999Z,101209.45
2023-05-10T02:12:15.598Z,101216.69
2023-05-10T02:14:47.561Z,101211.56
2023-05-10T02:17:20.132Z,101208.09
2023-05-10T02:19:51.073Z,101210.88
2023-05-10T02:22:23.859Z,101201.31
2023-05-10T02:24:55.313Z,101203.09
2023-05-10T02:27:28.599Z,101199.64
2023-05-10T02:29:59.079Z,101203.09
2023-05-10T02:32:31.096Z,101208.38
2023-05-10T02:35:03.454Z,101209.35
2023-05-10T02:37:33.560Z,101201.44
2023-05-10T02:40:05.843Z,101201.44
2023-05-10T02:42:37.084Z,101199.64
2023-05-10T02:45:16.531Z,101201.44
2023-05-10T02:47:46.743Z,101200.46
2023-05-10T02:50:19.054Z,101201.14
2023-05-10T02:52:52.917Z,101207.95
2023-05-10T02:55:27.859Z,101203.37
2023-05-10T02:57:59.911Z,101199.59
2023-05-10T03:00:29.941Z,101208.88
2023-05-10T03:03:00.438Z,101207.61
2023-05-10T03:05:31.906Z,101204.69
2023-05-10T03:08:05.512Z,101201.75
2023-05-10T03:10:42.928Z,101198.82
2023-05-10T03:13:30.594Z,101197.42
2023-05-10T03:16:09.572Z,101204.78
2023-05-10T03:18:49.179Z,101201.69
2023-05-10T03:21:23.533Z,101202.92
2023-05-10T03:24:06.626Z,101199.81
2023-05-10T03:26:36.541Z,101196.58
2023-05-10T03:29:18.508Z,101196.28
2023-05-10T03:31:48.859Z,101197.35
2023-05-10T03:34:24.499Z,101201.22
2023-05-10T03:36:55.239Z,101200.63
2023-05-10T03:39:25.797Z,101198.36
2023-05-10T03:41:58.980Z,101198.73
2023-05-10T03:44:28.665Z,101199.12
2023-05-10T03:46:59.636Z,101206.44
2023-05-10T03:49:30.286Z,101203.19
2023-05-10T03:52:00.246Z,101214.95
2023-05-10T03:54:30.164Z,101215.33
2023-05-10T03:57:00.801Z,101217.36
2023-05-10T03:59:31.432Z,101214.11
2023-05-10T04:02:01.575Z,101214.47
2023-05-10T04:04:32.261Z,101225.28
2023-05-10T04:07:02.998Z,101220.36
2023-05-10T04:09:33.216Z,101218.77
2023-05-10T04:12:03.865Z,101217.30
2023-05-10T04:14:34.376Z,101221.97
2023-05-10T04:17:04.931Z,101220.53
2023-05-10T04:19:35.233Z,101223.23
2023-05-10T04:22:05.968Z,101225.39
2023-05-10T04:24:35.878Z,101221.13
2023-05-10T04:27:06.612Z,101228.44
2023-05-10T04:29:36.942Z,101227.67
2023-05-10T04:32:08.403Z,101236.64
2023-05-10T04:34:38.822Z,101235.02
2023-05-10T04:37:09.337Z,101227.42
2023-05-10T04:39:42.000Z,101230.11
2023-05-10T04:42:12.477Z,101222.38
2023-05-10T04:44:42.358Z,101229.67
2023-05-10T04:47:13.689Z,101228.86
2023-05-10T04:49:44.034Z,101232.52
2023-05-10T04:52:14.950Z,101230.73
2023-05-10T04:54:44.704Z,101235.24
2023-05-10T04:57:15.636Z,101225.65
2023-05-10T04:59:46.356Z,101232.63
2023-05-10T05:02:17.890Z,101236.61
2023-05-10T05:04:49.236Z,101224.03
2023-05-10T05:07:19.969Z,101231.66
2023-05-10T05:09:50.489Z,101229.52
2023-05-10T05:12:20.813Z,101224.52
2023-05-10T05:14:52.156Z,101224.00
2023-05-10T05:17:21.869Z,101220.98
2023-05-10T05:19:51.990Z,101220.63
2023-05-10T05:22:27.852Z,101226.08
2023-05-10T05:24:59.809Z,101228.17
2023-05-10T05:27:30.941Z,101227.45
2023-05-10T05:30:01.471Z,101222.59
2023-05-10T05:32:32.627Z,101216.70
2023-05-10T05:35:02.941Z,101220.81
2023-05-10T05:37:34.076Z,101221.25
2023-05-10T05:40:08.081Z,101226.36
2023-05-10T05:42:39.479Z,101222.28
2023-05-10T05:45:13.599Z,101233.64
2023-05-10T05:47:44.201Z,101228.99
2023-05-10T05:50:15.113Z,101225.73
2023-05-10T05:52:45.227Z,101228.77
2023-05-10T05:55:15.674Z,101230.17
2023-05-10T05:57:46.283Z,101231.55
2023-05-10T06:00:19.062Z,101234.13
2023-05-10T06:02:49.061Z,101243.87
2023-05-10T06:05:21.335Z,101235.15
2023-05-10T06:07:51.273Z,101233.57
2023-05-10T06:10:22.281Z,101227.50
2023-05-10T06:12:53.486Z,101220.63
2023-05-10T06:15:23.691Z,101230.20
2023-05-10T06:17:55.231Z,101234.04
2023-05-10T06:20:26.194Z,101225.19
2023-05-10T06:22:56.678Z,101215.85
2023-05-10T06:25:27.420Z,101224.75
2023-05-10T06:27:58.616Z,101219.50
2023-05-10T06:30:28.893Z,101228.39
2023-05-10T06:32:59.348Z,101223.48
2023-05-10T06:35:30.760Z,101228.06
2023-05-10T06:38:01.292Z,101227.93
2023-05-10T06:40:31.616Z,101221.02
2023-05-10T06:43:01.725Z,101225.84
2023-05-10T06:45:32.457Z,101236.17
2023-05-10T06:48:03.436Z,101236.48
2023-05-10T06:50:34.951Z,101224.64
2023-05-10T06:53:05.668Z,101228.63
2023-05-10T06:55:36.415Z,101233.02
2023-05-10T06:58:07.146Z,101232.68
2023-05-10T07:00:40.854Z,101233.55
2023-05-10T07:03:11.297Z,101232.36
2023-05-10T07:05:41.697Z,101223.97
2023-05-10T07:08:13.902Z,101228.12
2023-05-10T07:10:45.730Z,101220.96
2023-05-10T07:13:16.329Z,101225.11
2023-05-10T07:15:48.032Z,101227.61
2023-05-10T07:18:18.991Z,101230.54
2023-05-10T07:20:49.277Z,101230.14
2023-05-10T07:23:20.201Z,101230.58
2023-05-10T07:25:52.170Z,101227.52
2023-05-10T07:28:21.256Z,101230.01
2023-05-10T07:30:51.817Z,101230.88
2023-05-10T07:33:22.328Z,101231.70
2023-05-10T07:35:53.197Z,101226.15
2023-05-10T07:38:23.978Z,101240.76
2023-05-10T07:40:54.122Z,101229.03
2023-05-10T07:43:24.163Z,101230.47
2023-05-10T07:45:56.124Z,101230.67
2023-05-10T07:48:26.709Z,101230.46
2023-05-10T07:50:57.027Z,101233.73
2023-05-10T07:53:28.629Z,101229.41
2023-05-10T07:56:00.552Z,101226.50
2023-05-10T07:58:30.063Z,101223.60
2023-05-10T08:00:59.736Z,101222.14
2023-05-10T08:03:30.188Z,101225.02
2023-05-10T08:06:00.753Z,101224.79
2023-05-10T08:08:30.726Z,101223.75
2023-05-10T08:11:01.013Z,101234.66
2023-05-10T08:13:31.981Z,101230.13
2023-05-10T08:16:02.126Z,101233.83
2023-05-10T08:18:31.827Z,101228.23
2023-05-10T08:21:01.760Z,101223.66
2023-05-10T08:23:31.858Z,101220.93
2023-05-10T08:26:02.753Z,101226.27
2023-05-10T08:28:33.730Z,101225.59
2023-05-10T08:31:03.949Z,101225.11
2023-05-10T08:33:33.973Z,101222.22
2023-05-10T08:36:05.332Z,101227.53
2023-05-10T08:38:35.209Z,101228.91
2023-05-10T08:41:06.467Z,101231.30
2023-05-10T08:43:38.933Z,101231.84
2023-05-10T08:46:11.365Z,101231.39
2023-05-10T08:48:42.448Z,101232.31
2023-05-10T08:51:16.937Z,101229.35
2023-05-10T08:53:48.075Z,101227.87
2023-05-10T08:56:18.950Z,101235.25
2023-05-10T08:58:50.198Z,101237.28
2023-05-10T09:01:21.443Z,101236.60
2023-05-10T09:03:52.435Z,101220.04
2023-05-10T09:06:22.896Z,101228.09
2023-05-10T09:08:53.060Z,101218.55
2023-05-10T09:11:23.962Z,101218.49
2023-05-10T09:13:54.893Z,101215.95
2023-05-10T09:16:26.083Z,101227.45
2023-05-10T09:18:56.211Z,101215.20
2023-05-10T09:21:27.918Z,101224.47
2023-05-10T09:23:56.615Z,101219.23
2023-05-10T09:26:26.718Z,101212.51
2023-05-10T09:28:58.675Z,101213.77
2023-05-10T09:31:44.117Z,101211.88
2023-05-10T09:34:18.813Z,101214.14
2023-05-10T09:37:01.264Z,101213.52
2023-05-10T09:39:36.371Z,101211.42
2023-05-10T09:42:07.992Z,101199.84
2023-05-10T09:44:38.933Z,101197.18
2023-05-10T09:47:09.243Z,101200.95
2023-05-10T09:49:39.558Z,101199.66
2023-05-10T09:52:11.114Z,101198.97
2023-05-10T09:54:53.070Z,101196.61
2023-05-10T09:57:22.402Z,101197.56
2023-05-10T09:59:54.706Z,101196.47
2023-05-10T10:02:30.652Z,101185.42
2023-05-10T10:05:04.200Z,101192.67
2023-05-10T10:07:35.307Z,101194.41
2023-05-10T10:10:12.045Z,101186.77
2023-05-10T10:12:43.426Z,101192.97
2023-05-10T10:15:16.596Z,101200.59
2023-05-10T10:17:49.130Z,101192.05
2023-05-10T10:20:20.505Z,101193.45
2023-05-10T10:22:49.822Z,101191.56
2023-05-10T10:25:22.288Z,101189.34
2023-05-10T10:28:06.423Z,101182.77
2023-05-10T10:30:43.086Z,101182.66
2023-05-10T10:33:37.799Z,101189.75
2023-05-10T10:36:09.955Z,101189.77
2023-05-10T10:39:00.156Z,101189.44
2023-05-10T10:41:32.459Z,101193.66
2023-05-10T10:44:38.476Z,101193.55
2023-05-10T10:47:30.061Z,101198.36
2023-05-10T10:50:09.781Z,101190.41
2023-05-10T10:52:41.384Z,101186.30
2023-05-10T10:55:14.081Z,101185.13
2023-05-10T10:57:52.054Z,101185.97
2023-05-10T11:00:33.045Z,101181.63
2023-05-10T11:03:07.720Z,101181.98
2023-05-10T11:05:41.439Z,101181.03
2023-05-10T11:08:19.818Z,101175.53
2023-05-10T11:11:07.398Z,101181.02
2023-05-10T11:13:41.000Z,101180.65
2023-05-10T11:16:16.995Z,101166.84
2023-05-10T11:19:04.794Z,101167.06
2023-05-10T11:21:36.046Z,101168.70
2023-05-10T11:24:15.642Z,101170.59
2023-05-10T11:26:46.333Z,101166.27
2023-05-10T11:29:17.346Z,101168.13
2023-05-10T11:31:49.016Z,101164.03
2023-05-10T11:34:30.697Z,101163.45
2023-05-10T11:37:02.776Z,101160.97
2023-05-10T11:39:34.102Z,101157.01
2023-05-10T11:42:04.659Z,101161.34
2023-05-10T11:44:35.779Z,101160.04
2023-05-10T11:47:07.741Z,101160.62
2023-05-10T11:49:38.477Z,101153.38
2023-05-10T11:52:11.575Z,101155.83
2023-05-10T11:54:51.696Z,101158.77
2023-05-10T11:57:28.402Z,101158.30
2023-05-10T12:00:00.870Z,101156.41
2023-05-10T12:02:31.477Z,101149.50
2023-05-10T12:05:03.808Z,101146.73
2023-05-10T12:07:35.520Z,101149.77
2023-05-10T12:10:15.156Z,101150.13
2023-05-10T12:12:48.039Z,101142.97
2023-05-10T12:15:21.945Z,101137.58
2023-05-10T12:17:53.003Z,101138.22
2023-05-10T12:20:28.591Z,101130.59
2023-05-10T12:23:02.549Z,101131.03
2023-05-10T12:25:34.203Z,101125.61
2023-05-10T12:28:07.749Z,101123.81
2023-05-10T12:30:39.980Z,101119.09
2023-05-10T12:33:15.421Z,101116.86
2023-05-10T12:35:49.682Z,101100.52
2023-05-10T12:38:30.298Z,101101.27
2023-05-10T12:41:02.776Z,101094.17
2023-05-10T12:43:34.114Z,101092.93
2023-05-10T12:46:10.596Z,101088.45
2023-05-10T12:48:42.100Z,101095.79
2023-05-10T12:51:16.144Z,101092.37
2023-05-10T12:53:49.606Z,101095.64
2023-05-10T12:56:19.606Z,101091.88
2023-05-10T12:58:49.981Z,101086.21
2023-05-10T13:01:21.543Z,101073.20
2023-05-10T13:03:51.642Z,101074.27
2023-05-10T13:06:21.356Z,101073.78
2023-05-10T13:08:52.293Z,101068.95
2023-05-10T13:11:22.704Z,101074.34
2023-05-10T13:13:53.356Z,101072.22
2023-05-10T13:16:23.554Z,101068.45
2023-05-10T13:18:54.033Z,101065.19
2023-05-10T13:21:25.772Z,101059.48
2023-05-10T13:23:55.067Z,101051.30
2023-05-10T13:26:26.185Z,101060.62
2023-05-10T13:28:56.528Z,101051.38
2023-05-10T13:31:27.296Z,101053.69
2023-05-10T13:33:57.767Z,101052.20
2023-05-10T13:36:28.871Z,101044.02
2023-05-10T13:38:59.234Z,101039.87
2023-05-10T13:41:29.822Z,101042.48
2023-05-10T13:44:00.498Z,101041.56
2023-05-10T13:46:31.669Z,101036.91
2023-05-10T13:49:02.583Z,101043.25
2023-05-10T13:51:33.043Z,101041.52
2023-05-10T13:54:03.234Z,101041.92
2023-05-10T13:56:33.988Z,101045.09
2023-05-10T13:59:03.696Z,101036.43
2023-05-10T14:01:34.036Z,101037.14
2023-05-10T14:04:07.728Z,101038.69
2023-05-10T14:06:38.120Z,101041.28
2023-05-10T14:09:07.840Z,101034.73
2023-05-10T14:11:42.255Z,101036.28
2023-05-10T14:14:13.187Z,101046.16
2023-05-10T14:16:45.736Z,101038.45
2023-05-10T14:19:15.883Z,101045.12
2023-05-10T14:21:46.156Z,101032.70
2023-05-10T14:24:16.083Z,101034.59
2023-05-10T14:26:46.639Z,101037.52
2023-05-10T14:29:16.485Z,101033.19
2023-05-10T14:31:46.510Z,101030.49
2023-05-10T14:34:16.792Z,101030.02
2023-05-10T14:36:46.712Z,101041.38
2023-05-10T14:39:16.850Z,101035.86
2023-05-10T14:41:47.565Z,101024.92
2023-05-10T14:44:17.884Z,101027.71
2023-05-10T14:46:48.950Z,101029.44
2023-05-10T14:49:18.668Z,101027.90
2023-05-10T14:51:48.548Z,101026.45
2023-05-10T14:54:18.040Z,101031.22
2023-05-10T14:56:50.144Z,101032.69
2023-05-10T14:59:21.654Z,101032.20
2023-05-10T15:01:52.216Z,101027.06
2023-05-10T15:04:23.322Z,101025.74
2023-05-10T15:06:59.594Z,101029.84
2023-05-10T15:09:29.231Z,101028.82
2023-05-10T15:11:59.633Z,101022.47
2023-05-10T15:14:30.897Z,101014.64
2023-05-10T15:17:01.917Z,101017.91
2023-05-10T15:19:33.762Z,101012.75
2023-05-10T15:22:05.142Z,101013.00
2023-05-10T15:24:34.730Z,101009.48
2023-05-10T15:27:05.252Z,101010.53
2023-05-10T15:29:36.397Z,101004.57
2023-05-10T15:32:07.536Z,101008.33
2023-05-10T15:34:37.441Z,101008.59
2023-05-10T15:37:07.592Z,101006.12
2023-05-10T15:39:37.690Z,101004.73
2023-05-10T15:42:08.413Z,101007.09
2023-05-10T15:44:39.159Z,101005.36
2023-05-10T15:47:09.473Z,101004.79
2023-05-10T15:49:39.388Z,101008.71
2023-05-10T15:52:09.501Z,101011.31
2023-05-10T15:54:39.843Z,101005.57
2023-05-10T15:57:10.560Z,101006.31
2023-05-10T15:59:41.300Z,101004.58
2023-05-10T16:02:11.750Z,100999.80
2023-05-10T16:04:44.148Z,101011.53
2023-05-10T16:07:14.518Z,101005.46
2023-05-10T16:09:43.720Z,101008.78
2023-05-10T16:12:13.735Z,101005.38
2023-05-10T16:14:43.847Z,101004.91
2023-05-10T16:17:15.563Z,101006.11
2023-05-10T16:19:45.124Z,101010.80
2023-05-10T16:22:16.051Z,101009.74
2023-05-10T16:24:45.493Z,101006.57
2023-05-10T16:27:15.880Z,101010.67
2023-05-10T16:29:47.004Z,101011.27
2023-05-10T16:32:17.346Z,101014.30
2023-05-10T16:34:47.264Z,101015.23
2023-05-10T16:37:17.784Z,101007.26
2023-05-10T16:39:47.696Z,101010.66
2023-05-10T16:42:18.436Z,101015.51
2023-05-10T16:44:49.578Z,101016.43
2023-05-10T16:47:20.307Z,101011.17
2023-05-10T16:49:51.254Z,101017.68
2023-05-10T16:52:22.181Z,101018.84
2023-05-10T16:54:51.827Z,101023.95
2023-05-10T16:57:21.715Z,101026.57
2023-05-10T16:59:52.958Z,101030.41
2023-05-10T17:02:23.581Z,101028.84
2023-05-10T17:04:55.645Z,101032.08
2023-05-10T17:07:26.386Z,101029.90
2023-05-10T17:09:58.533Z,101033.93
2023-05-10T17:12:28.868Z,101043.09
2023-05-10T17:14:59.192Z,101036.38
2023-05-10T17:17:29.134Z,101040.39
2023-05-10T17:20:00.242Z,101035.31
2023-05-10T17:22:30.973Z,101039.92
2023-05-10T17:25:01.296Z,101043.09
2023-05-10T17:27:32.242Z,101041.73
2023-05-10T17:30:02.764Z,101045.12
2023-05-10T17:32:32.705Z,101038.19
2023-05-10T17:35:03.270Z,101043.59
2023-05-10T17:37:33.742Z,101053.97
2023-05-10T17:40:05.487Z,101047.23
2023-05-10T17:42:35.402Z,101054.89
2023-05-10T17:45:09.746Z,101053.94
2023-05-10T17:47:39.491Z,101057.30
2023-05-10T17:50:11.734Z,101065.58
2023-05-10T17:52:42.429Z,101079.21
2023-05-10T17:55:13.330Z,101074.90
2023-05-10T17:57:43.278Z,101067.09
2023-05-10T18:00:17.200Z,101085.88
2023-05-10T18:02:47.656Z,101077.85
2023-05-10T18:05:19.070Z,101090.23
2023-05-10T18:07:49.485Z,101086.14
2023-05-10T18:10:20.842Z,101092.52
2023-05-10T18:12:52.185Z,101098.09
2023-05-10T18:15:22.502Z,101100.79
2023-05-10T18:17:52.873Z,101104.27
2023-05-10T18:20:24.571Z,101105.28
2023-05-10T18:22:55.020Z,101111.45
2023-05-10T18:25:26.450Z,101107.77
2023-05-10T18:27:56.167Z,101122.14
2023-05-10T18:30:27.305Z,101123.98
2023-05-10T18:32:58.134Z,101120.48
2023-05-10T18:35:28.770Z,101121.11
2023-05-10T18:37:59.096Z,101119.43
2023-05-10T18:40:29.633Z,101116.76
2023-05-10T18:42:59.736Z,101121.27
2023-05-10T18:45:30.689Z,101121.23
2023-05-10T18:48:01.496Z,101130.67
2023-05-10T18:50:32.348Z,101126.97
2023-05-10T18:53:03.487Z,101131.25
2023-05-10T18:55:34.432Z,101139.88
2023-05-10T18:58:04.983Z,101139.22
2023-05-10T19:00:35.483Z,101133.86
2023-05-10T19:03:05.642Z,101138.13
2023-05-10T19:05:35.310Z,101138.92
2023-05-10T19:08:05.850Z,101133.32
2023-05-10T19:10:35.959Z,101140.47
2023-05-10T19:13:06.279Z,101145.57
2023-05-10T19:15:36.837Z,101146.98
2023-05-10T19:18:07.946Z,101147.56
2023-05-10T19:20:40.840Z,101149.98
2023-05-10T19:23:13.095Z,101151.22
2023-05-10T19:25:43.019Z,101155.69
2023-05-10T19:28:12.781Z,101148.45
2023-05-10T19:30:43.040Z,101153.34
2023-05-10T19:33:13.671Z,101149.41
2023-05-10T19:35:44.517Z,101152.47
2023-05-10T19:38:15.856Z,101153.06
2023-05-10T19:40:49.609Z,101153.62
2023-05-10T19:43:21.420Z,101162.02
2023-05-10T19:45:52.149Z,101155.41
2023-05-10T19:48:22.274Z,101153.34
2023-05-10T19:50:53.202Z,101150.21
2023-05-10T19:53:23.537Z,101150.80
2023-05-10T19:55:56.720Z,101161.22
2023-05-10T19:58:28.182Z,101166.09
2023-05-10T20:00:58.446Z,101157.84
2023-05-10T20:03:28.716Z,101162.91
2023-05-10T20:05:59.243Z,101166.16
2023-05-10T20:08:29.611Z,101168.75
2023-05-10T20:11:02.230Z,101162.98
2023-05-10T20:13:33.079Z,101173.38
2023-05-10T20:16:04.627Z,101169.44
2023-05-10T20:18:35.182Z,101158.52
2023-05-10T20:21:06.099Z,101160.92
2023-05-10T20:23:36.834Z,101157.97
2023-05-10T20:26:06.942Z,101162.02
2023-05-10T20:28:37.476Z,101161.92
2023-05-10T20:31:07.214Z,101160.64
2023-05-10T20:33:38.080Z,101158.55
2023-05-10T20:36:09.644Z,101155.63
2023-05-10T20:38:39.995Z,101159.67
2023-05-10T20:41:10.315Z,101168.03
2023-05-10T20:43:40.228Z,101165.91
2023-05-10T20:46:10.217Z,101173.45
2023-05-10T20:48:41.277Z,101168.49
2023-05-10T20:51:11.601Z,101171.69
2023-05-10T20:53:41.517Z,101182.34
2023-05-10T20:56:11.854Z,101176.57
2023-05-10T20:58:41.974Z,101175.09
2023-05-10T21:01:12.297Z,101182.43
2023-05-10T21:03:42.813Z,101175.66
2023-05-10T21:06:12.238Z,101180.33
2023-05-10T21:08:42.589Z,101182.52
2023-05-10T21:11:12.762Z,101175.73
2023-05-10T21:13:43.081Z,101175.27
2023-05-10T21:16:13.232Z,101180.78
2023-05-10T21:18:43.184Z,101179.13
2023-05-10T21:21:13.573Z,101175.98
2023-05-10T21:23:46.017Z,101180.86
2023-05-10T21:26:14.894Z,101180.22
2023-05-10T21:28:46.239Z,101175.26
2023-05-10T21:31:16.803Z,101176.27
2023-05-10T21:33:47.506Z,101178.28
2023-05-10T21:36:18.516Z,101177.63
2023-05-10T21:38:50.204Z,101178.00
2023-05-10T21:41:21.345Z,101179.17
2023-05-10T21:43:51.049Z,101179.53
2023-05-10T21:46:21.287Z,101179.08
2023-05-10T21:48:51.669Z,101178.43
2023-05-10T21:51:22.020Z,101179.60
2023-05-10T21:53:52.555Z,101179.15
2023-05-10T21:56:23.093Z,101181.16
2023-05-10T21:58:53.200Z,101176.20
2023-05-10T22:01:23.139Z,101174.71
2023-05-10T22:03:53.839Z,101175.91
2023-05-10T22:06:24.588Z,101176.27
2023-05-10T22:08:55.308Z,101180.29
2023-05-10T22:11:25.633Z,101169.00
2023-05-10T22:13:55.951Z,101172.67
2023-05-10T22:16:26.933Z,101180.00
2023-05-10T22:18:57.489Z,101177.50
2023-05-10T22:21:28.148Z,101170.53
2023-05-10T22:23:58.673Z,101166.38
2023-05-10T22:26:28.796Z,101169.39
2023-05-10T22:28:58.927Z,101170.59
2023-05-10T22:31:29.466Z,101174.41
2023-05-10T22:34:00.178Z,101172.11
2023-05-10T22:36:30.087Z,101171.66
2023-05-10T22:39:00.615Z,101181.79
2023-05-10T22:41:30.736Z,101177.80
2023-05-10T22:44:01.658Z,101172.84
2023-05-10T22:46:32.668Z,101173.38
2023-05-10T22:49:03.333Z,101169.07
2023-05-10T22:51:33.654Z,101175.55
2023-05-10T22:54:03.586Z,101177.74
2023-05-10T22:56:33.692Z,101177.25
2023-05-10T22:59:04.848Z,101174.12
2023-05-10T23:01:35.006Z,101175.48
2023-05-10T23:04:05.633Z,101178.48
2023-05-10T23:06:36.414Z,101175.33
2023-05-10T23:09:06.120Z,101167.91
2023-05-10T23:11:36.243Z,101162.94
2023-05-10T23:14:06.970Z,101159.13
2023-05-10T23:16:37.972Z,101155.17
2023-05-10T23:19:09.091Z,101158.17
2023-05-10T23:21:39.173Z,101162.17
2023-05-10T23:24:09.959Z,101159.20
2023-05-10T23:26:40.640Z,101154.24
2023-05-10T23:29:10.870Z,101153.12
2023-05-10T23:31:44.771Z,101153.62
2023-05-10T23:34:15.246Z,101157.61
2023-05-10T23:36:45.005Z,101154.64
2023-05-10T23:39:15.127Z,101145.55
2023-05-10T23:41:45.029Z,101146.23
2023-05-10T23:44:16.383Z,101146.08
2023-05-10T23:46:46.514Z,101139.98
2023-05-10T23:49:16.823Z,101153.08
2023-05-10T23:51:47.152Z,101148.44
2023-05-10T23:54:17.260Z,101150.95
2023-05-10T23:56:49.717Z,101158.40
2023-05-10T23:59:19.141Z,101151.96
